createdAt,value
2023-08-17T00:01:55.054Z,8.52
2023-08-17T00:04:24.154Z,8.95
2023-08-17T00:06:52.652Z,8.57
2023-08-17T00:09:21.477Z,7.90
2023-08-17T00:11:50.046Z,8.00
2023-08-17T00:14:18.477Z,8.18
2023-08-17T00:16:48.329Z,8.40
2023-08-17T00:19:16.841Z,8.45
2023-08-17T00:21:47.251Z,7.82
2023-08-17T00:24:15.761Z,8.38
2023-08-17T00:26:44.160Z,8.40
2023-08-17T00:29:12.766Z,8.60
2023-08-17T00:31:41.358Z,7.60
2023-08-17T00:34:14.078Z,7.90
2023-08-17T00:36:42.636Z,8.73
2023-08-17T00:39:11.180Z,7.38
2023-08-17T00:41:39.795Z,8.60
2023-08-17T00:44:08.419Z,8.43
2023-08-17T00:46:36.941Z,8.35
2023-08-17T00:49:05.873Z,8.80
2023-08-17T00:51:35.841Z,7.93
2023-08-17T00:54:04.924Z,8.40
2023-08-17T00:56:33.531Z,8.32
2023-08-17T00:59:02.000Z,8.18
2023-08-17T01:01:30.522Z,8.40
2023-08-17T01:03:58.944Z,8.38
2023-08-17T01:06:27.550Z,7.88
2023-08-17T01:08:57.344Z,8.00
2023-08-17T01:11:31.167Z,7.95
2023-08-17T01:14:03.940Z,8.15
2023-08-17T01:16:35.226Z,7.70
2023-08-17T01:19:03.870Z,7.63
2023-08-17T01:21:38.158Z,7.72
2023-08-17T01:24:09.082Z,7.47
2023-08-17T01:26:37.906Z,7.90
2023-08-17T01:29:06.455Z,7.63
2023-08-17T01:31:39.137Z,8.07
2023-08-17T01:34:10.935Z,7.95
2023-08-17T01:36:42.472Z,7.43
2023-08-17T01:39:12.246Z,7.53
2023-08-17T01:41:40.816Z,7.68
2023-08-17T01:44:09.259Z,7.15
2023-08-17T01:46:38.055Z,7.53
2023-08-17T01:49:06.989Z,7.80
2023-08-17T01:51:35.414Z,7.80
2023-08-17T01:54:04.007Z,7.38
2023-08-17T01:56:34.164Z,7.55
2023-08-17T01:59:02.643Z,7.55
2023-08-17T02:01:31.057Z,7.75
2023-08-17T02:04:03.274Z,7.22
2023-08-17T02:06:31.740Z,7.70
2023-08-17T02:09:00.776Z,7.53
2023-08-17T02:11:29.282Z,7.38
2023-08-17T02:13:59.053Z,7.43
2023-08-17T02:16:27.516Z,7.80
2023-08-17T02:18:56.023Z,7.32
2023-08-17T02:21:24.625Z,7.38
2023-08-17T02:23:53.035Z,7.30
2023-08-17T02:26:21.965Z,6.88
2023-08-17T02:28:50.562Z,6.93
2023-08-17T02:31:20.310Z,6.75
2023-08-17T02:33:48.844Z,7.55
2023-08-17T02:36:17.258Z,7.78
2023-08-17T02:38:46.015Z,7.47
2023-08-17T02:41:14.887Z,7.40
2023-08-17T02:43:43.611Z,7.13
2023-08-17T02:46:12.104Z,7.57
2023-08-17T02:48:42.015Z,7.45
2023-08-17T02:51:10.387Z,7.47
2023-08-17T02:53:39.483Z,7.82
2023-08-17T02:56:07.950Z,7.40
2023-08-17T02:58:36.489Z,8.10
2023-08-17T03:01:05.606Z,7.28
2023-08-17T03:03:34.141Z,7.38
2023-08-17T03:06:04.460Z,7.13
2023-08-17T03:08:32.921Z,7.88
2023-08-17T03:11:01.622Z,8.07
2023-08-17T03:13:30.193Z,7.55
2023-08-17T03:15:58.676Z,7.63
2023-08-17T03:18:27.130Z,8.23
2023-08-17T03:20:55.631Z,7.88
2023-08-17T03:23:25.545Z,7.88
2023-08-17T03:25:54.750Z,8.35
2023-08-17T03:28:23.208Z,8.10
2023-08-17T03:30:51.733Z,8.05
2023-08-17T03:33:20.251Z,8.52
2023-08-17T03:35:49.062Z,8.75
2023-08-17T03:38:17.487Z,8.23
2023-08-17T03:40:47.415Z,8.93
2023-08-17T03:43:15.816Z,8.77
2023-08-17T03:45:44.669Z,9.38
2023-08-17T03:48:13.669Z,8.82
2023-08-17T03:50:42.287Z,9.45
2023-08-17T03:53:10.742Z,9.00
2023-08-17T03:55:39.268Z,8.77
2023-08-17T03:58:09.050Z,9.27
2023-08-17T04:00:37.584Z,8.93
2023-08-17T04:03:06.718Z,9.25
2023-08-17T04:05:35.187Z,9.68
2023-08-17T04:08:03.930Z,9.20
2023-08-17T04:10:32.350Z,9.40
2023-08-17T04:13:00.899Z,10.05
2023-08-17T04:15:30.716Z,9.73
2023-08-17T04:17:59.216Z,9.73
2023-08-17T04:20:27.949Z,9.63
2023-08-17T04:22:56.525Z,9.93
2023-08-17T04:25:25.065Z,9.50
2023-08-17T04:27:53.665Z,10.18
2023-08-17T04:30:22.265Z,10.13
2023-08-17T04:32:54.004Z,10.15
2023-08-17T04:35:22.886Z,9.43
2023-08-17T04:37:51.365Z,9.93
2023-08-17T04:40:19.965Z,10.70
2023-08-17T04:42:48.457Z,9.70
2023-08-17T04:45:16.976Z,10.30
2023-08-17T04:47:45.542Z,11.50
2023-08-17T04:50:17.507Z,12.90
2023-08-17T04:52:46.371Z,13.02
2023-08-17T04:55:15.127Z,14.45
2023-08-17T04:57:43.601Z,13.52
2023-08-17T05:00:13.805Z,12.35
2023-08-17T05:02:42.531Z,11.75
2023-08-17T05:05:14.940Z,10.57
2023-08-17T05:07:43.417Z,8.98
2023-08-17T05:10:12.538Z,9.40
2023-08-17T05:12:41.124Z,8.82
2023-08-17T05:15:11.579Z,8.63
2023-08-17T05:17:40.260Z,8.98
2023-08-17T05:20:10.404Z,8.95
2023-08-17T05:22:40.368Z,8.80
2023-08-17T05:25:09.915Z,8.75
2023-08-17T05:27:38.412Z,8.88
2023-08-17T05:30:08.970Z,8.70
2023-08-17T05:32:37.498Z,8.70
2023-08-17T05:35:06.825Z,8.30
2023-08-17T05:37:35.351Z,8.52
2023-08-17T05:40:06.817Z,9.50
2023-08-17T05:42:35.245Z,8.55
2023-08-17T05:45:03.837Z,8.48
2023-08-17T05:47:32.431Z,8.85
2023-08-17T05:50:00.955Z,10.23
2023-08-17T05:52:29.427Z,9.32
2023-08-17T05:54:59.516Z,9.40
2023-08-17T05:57:30.116Z,9.38
2023-08-17T05:59:58.650Z,9.63
2023-08-17T06:02:27.064Z,10.20
2023-08-17T06:04:55.643Z,9.45
2023-08-17T06:07:24.483Z,10.43
2023-08-17T06:09:53.180Z,10.45
2023-08-17T06:12:21.648Z,10.13
2023-08-17T06:14:51.883Z,10.05
2023-08-17T06:17:20.558Z,10.13
2023-08-17T06:19:49.355Z,10.43
2023-08-17T06:22:17.940Z,10.45
2023-08-17T06:24:46.547Z,10.00
2023-08-17T06:27:16.806Z,9.93
2023-08-17T06:29:45.635Z,10.68
2023-08-17T06:32:15.498Z,10.50
2023-08-17T06:34:44.116Z,11.23
2023-08-17T06:37:12.744Z,10.20
2023-08-17T06:39:41.302Z,10.23
2023-08-17T06:42:10.027Z,10.20
2023-08-17T06:44:38.686Z,11.05
2023-08-17T06:47:07.531Z,10.95
2023-08-17T06:49:37.677Z,10.52
2023-08-17T06:52:07.182Z,10.57
2023-08-17T06:54:36.560Z,11.38
2023-08-17T06:57:05.360Z,11.30
2023-08-17T06:59:34.479Z,11.48
2023-08-17T07:02:03.184Z,10.95
2023-08-17T07:04:32.380Z,10.85
2023-08-17T07:07:02.463Z,11.20
2023-08-17T07:09:31.048Z,11.43
2023-08-17T07:11:59.749Z,11.65
2023-08-17T07:14:29.278Z,12.18
2023-08-17T07:16:57.940Z,11.10
2023-08-17T07:19:45.597Z,11.40
2023-08-17T07:22:17.595Z,12.30
2023-08-17T07:24:46.243Z,12.07
2023-08-17T07:27:15.080Z,13.15
2023-08-17T07:29:43.680Z,13.48
2023-08-17T07:32:12.287Z,12.85
2023-08-17T07:34:41.096Z,13.05
2023-08-17T07:37:09.680Z,12.68
2023-08-17T07:39:39.755Z,13.85
2023-08-17T07:42:08.433Z,12.43
2023-08-17T07:44:37.130Z,13.32
2023-08-17T07:47:06.296Z,11.70
2023-08-17T07:49:34.944Z,12.45
2023-08-17T07:52:03.642Z,11.82
2023-08-17T07:54:32.161Z,12.93
2023-08-17T07:57:03.859Z,12.80
2023-08-17T07:59:32.415Z,11.95
2023-08-17T08:02:01.051Z,11.48
2023-08-17T08:04:29.734Z,11.73
2023-08-17T08:06:58.510Z,12.27
2023-08-17T08:09:27.205Z,11.38
2023-08-17T08:11:55.895Z,11.82
2023-08-17T08:14:25.846Z,12.30
2023-08-17T08:16:54.533Z,12.45
2023-08-17T08:19:23.528Z,11.93
2023-08-17T08:21:52.027Z,12.13
2023-08-17T08:24:36.605Z,11.70
2023-08-17T08:27:06.899Z,11.93
2023-08-17T08:29:37.338Z,12.02
2023-08-17T08:32:06.650Z,12.00
2023-08-17T08:34:35.319Z,12.68
2023-08-17T08:37:03.868Z,12.00
2023-08-17T08:39:32.698Z,12.05
2023-08-17T08:42:02.049Z,12.40
2023-08-17T08:44:30.967Z,12.10
2023-08-17T08:47:00.960Z,11.85
2023-08-17T08:49:29.826Z,11.50
2023-08-17T08:52:00.681Z,12.20
2023-08-17T08:54:29.601Z,12.55
2023-08-17T08:57:01.868Z,12.02
2023-08-17T08:59:30.837Z,11.02
2023-08-17T09:02:01.147Z,11.57
2023-08-17T09:04:29.887Z,11.48
2023-08-17T09:06:58.890Z,11.50
2023-08-17T09:09:30.326Z,10.52
2023-08-17T09:11:59.530Z,11.95
2023-08-17T09:14:28.122Z,11.70
2023-08-17T09:17:00.213Z,11.90
2023-08-17T09:19:30.175Z,11.85
2023-08-17T09:21:58.722Z,11.77
2023-08-17T09:24:27.244Z,11.07
2023-08-17T09:26:59.792Z,9.80
2023-08-17T09:29:28.363Z,9.90
2023-08-17T09:31:56.983Z,11.10
2023-08-17T09:34:25.553Z,10.73
2023-08-17T09:36:55.374Z,10.40
2023-08-17T09:39:23.793Z,10.32
2023-08-17T09:41:52.302Z,10.93
2023-08-17T09:44:20.917Z,10.75
2023-08-17T09:46:49.533Z,10.82
2023-08-17T09:49:19.183Z,9.90
2023-08-17T09:51:47.612Z,10.80
2023-08-17T09:54:28.106Z,11.57
2023-08-17T09:56:56.635Z,11.00
2023-08-17T09:59:26.345Z,9.95
2023-08-17T10:01:57.297Z,10.23
2023-08-17T10:04:26.319Z,10.38
2023-08-17T10:06:59.638Z,10.82
2023-08-17T10:09:37.353Z,10.45
2023-08-17T10:12:12.497Z,10.68
2023-08-17T10:14:47.993Z,10.15
2023-08-17T10:17:19.412Z,10.80
2023-08-17T10:19:53.358Z,11.15
2023-08-17T10:22:25.120Z,12.18
2023-08-17T10:24:55.217Z,11.00
2023-08-17T10:27:23.678Z,11.23
2023-08-17T10:29:52.127Z,10.95
2023-08-17T10:32:20.750Z,11.93
2023-08-17T10:34:49.298Z,11.18
2023-08-17T10:37:17.731Z,10.65
2023-08-17T10:39:47.898Z,10.00
2023-08-17T10:42:20.859Z,10.00
2023-08-17T10:44:50.350Z,9.75
2023-08-17T10:47:26.195Z,9.80
2023-08-17T10:49:58.351Z,9.88
2023-08-17T10:52:32.144Z,9.45
2023-08-17T10:55:02.533Z,9.43
2023-08-17T10:57:36.455Z,9.23
2023-08-17T11:00:22.037Z,8.77
2023-08-17T11:02:57.911Z,9.68
2023-08-17T11:05:43.623Z,9.20
2023-08-17T11:08:15.131Z,8.80
2023-08-17T11:10:48.323Z,9.75
2023-08-17T11:13:18.372Z,9.57
2023-08-17T11:15:49.611Z,9.50
2023-08-17T11:18:18.326Z,9.35
2023-08-17T11:20:48.133Z,8.63
2023-08-17T11:23:16.795Z,9.70
2023-08-17T11:25:45.431Z,8.80
2023-08-17T11:28:15.393Z,9.63
2023-08-17T11:30:47.820Z,10.00
2023-08-17T11:33:16.431Z,10.15
2023-08-17T11:35:45.467Z,10.50
2023-08-17T11:38:14.166Z,11.10
2023-08-17T11:40:42.572Z,9.43
2023-08-17T11:43:12.341Z,10.18
2023-08-17T11:45:41.555Z,9.00
2023-08-17T11:48:11.850Z,9.30
2023-08-17T11:50:42.095Z,8.77
2023-08-17T11:53:10.648Z,8.85
2023-08-17T11:55:39.397Z,8.85
2023-08-17T11:58:10.478Z,8.65
2023-08-17T12:00:43.685Z,7.85
2023-08-17T12:03:16.897Z,7.97
2023-08-17T12:05:46.562Z,8.15
2023-08-17T12:08:16.553Z,7.90
2023-08-17T12:10:45.359Z,7.32
2023-08-17T12:13:15.913Z,7.68
2023-08-17T12:15:44.694Z,7.63
2023-08-17T12:18:14.695Z,8.05
2023-08-17T12:20:44.568Z,7.35
2023-08-17T12:23:15.130Z,7.60
2023-08-17T12:25:43.763Z,6.95
2023-08-17T12:28:14.750Z,7.32
2023-08-17T12:30:43.411Z,6.90
2023-08-17T12:33:13.370Z,6.25
2023-08-17T12:35:41.923Z,5.80
2023-08-17T12:38:10.439Z,6.35
2023-08-17T12:40:39.047Z,5.65
2023-08-17T12:43:07.633Z,5.22
2023-08-17T12:45:36.215Z,5.13
2023-08-17T12:48:05.121Z,4.63
2023-08-17T12:50:35.558Z,4.50
2023-08-17T12:53:04.143Z,5.18
2023-08-17T12:55:32.589Z,5.15
2023-08-17T12:58:02.245Z,5.00
2023-08-17T13:00:30.749Z,4.68
2023-08-17T13:02:59.347Z,4.65
2023-08-17T13:05:27.829Z,4.82
2023-08-17T13:07:57.839Z,5.20
2023-08-17T13:10:26.395Z,4.72
2023-08-17T13:12:57.670Z,4.78
2023-08-17T13:15:29.788Z,4.68
2023-08-17T13:17:58.526Z,4.70
2023-08-17T13:20:27.137Z,4.32
2023-08-17T13:22:57.073Z,4.80
2023-08-17T13:25:25.549Z,4.25
2023-08-17T13:27:54.027Z,3.95
2023-08-17T13:30:22.458Z,3.85
2023-08-17T13:32:51.119Z,3.95
2023-08-17T13:35:19.971Z,4.47
2023-08-17T13:37:48.475Z,4.35
2023-08-17T13:40:18.418Z,4.20
2023-08-17T13:42:47.130Z,4.18
2023-08-17T13:45:15.703Z,4.43
2023-08-17T13:47:44.130Z,4.28
2023-08-17T13:50:12.942Z,4.30
2023-08-17T13:52:41.843Z,4.60
2023-08-17T13:55:11.207Z,4.43
2023-08-17T13:57:41.043Z,4.18
2023-08-17T14:00:11.834Z,4.40
2023-08-17T14:02:40.971Z,4.90
2023-08-17T14:05:10.657Z,4.20
2023-08-17T14:07:39.066Z,4.47
2023-08-17T14:10:13.834Z,4.50
2023-08-17T14:12:48.717Z,4.53
2023-08-17T14:15:17.191Z,4.38
2023-08-17T14:17:45.738Z,4.53
2023-08-17T14:20:16.553Z,4.20
2023-08-17T14:22:45.158Z,4.13
2023-08-17T14:25:13.645Z,4.28
2023-08-17T14:27:42.144Z,4.50
2023-08-17T14:30:13.073Z,4.15
2023-08-17T14:32:41.560Z,3.95
2023-08-17T14:35:13.217Z,4.07
2023-08-17T14:37:41.947Z,4.20
2023-08-17T14:40:11.399Z,4.10
2023-08-17T14:42:40.234Z,3.80
2023-08-17T14:45:11.863Z,4.25
2023-08-17T14:47:40.503Z,4.32
2023-08-17T14:50:09.651Z,4.03
2023-08-17T14:52:38.242Z,3.97
2023-08-17T14:55:07.356Z,4.47
2023-08-17T14:57:35.849Z,4.50
2023-08-17T15:00:05.349Z,4.30
2023-08-17T15:02:35.223Z,4.57
2023-08-17T15:05:03.860Z,4.43
2023-08-17T15:10:04.895Z,4.25
2023-08-17T15:12:33.358Z,5.20
2023-08-17T15:15:02.139Z,4.78
2023-08-17T15:17:30.673Z,4.50
2023-08-17T15:20:01.397Z,4.60
2023-08-17T15:22:29.806Z,4.10
2023-08-17T15:24:58.308Z,4.80
2023-08-17T15:27:27.112Z,4.40
2023-08-17T15:29:55.923Z,4.78
2023-08-17T15:32:24.362Z,4.13
2023-08-17T15:34:54.826Z,4.30
2023-08-17T15:37:26.617Z,4.10
2023-08-17T15:39:55.556Z,4.43
2023-08-17T15:42:23.981Z,4.40
2023-08-17T15:44:53.269Z,3.97
2023-08-17T15:47:21.747Z,4.28
2023-08-17T15:49:50.232Z,4.18
2023-08-17T15:52:19.068Z,4.10
2023-08-17T15:54:48.919Z,4.28
2023-08-17T15:57:17.347Z,4.20
2023-08-17T15:59:45.732Z,4.18
2023-08-17T16:02:14.245Z,4.72
2023-08-17T16:04:43.050Z,4.93
2023-08-17T16:07:11.624Z,4.47
2023-08-17T16:09:40.681Z,4.97
2023-08-17T16:12:11.684Z,5.07
2023-08-17T16:14:40.159Z,5.30
2023-08-17T16:17:08.703Z,5.03
2023-08-17T16:19:37.226Z,5.13
2023-08-17T16:22:06.096Z,4.82
2023-08-17T16:24:34.590Z,4.82
2023-08-17T16:27:03.480Z,4.57
2023-08-17T16:29:33.334Z,5.10
2023-08-17T16:32:09.129Z,4.40
2023-08-17T16:34:38.227Z,4.60
2023-08-17T16:37:07.150Z,4.90
2023-08-17T16:39:35.996Z,4.80
2023-08-17T16:42:04.972Z,4.88
2023-08-17T16:44:35.246Z,4.78
2023-08-17T16:47:03.799Z,5.05
2023-08-17T16:49:32.266Z,5.03
2023-08-17T16:52:01.408Z,4.80
2023-08-17T16:54:29.972Z,5.10
2023-08-17T16:56:58.439Z,4.63
2023-08-17T16:59:27.029Z,4.60
2023-08-17T17:01:56.989Z,4.55
2023-08-17T17:04:25.502Z,4.97
2023-08-17T17:06:54.007Z,4.70
2023-08-17T17:09:22.730Z,5.03
2023-08-17T17:11:51.279Z,4.57
2023-08-17T17:14:19.826Z,5.03
2023-08-17T17:16:48.244Z,4.70
2023-08-17T17:19:19.304Z,4.32
2023-08-17T17:21:47.867Z,4.50
2023-08-17T17:24:16.348Z,4.88
2023-08-17T17:26:44.791Z,4.47
2023-08-17T17:29:13.268Z,4.35
2023-08-17T17:31:41.981Z,4.68
2023-08-17T17:34:10.623Z,4.38
2023-08-17T17:36:40.483Z,4.53
2023-08-17T17:39:08.911Z,4.43
2023-08-17T17:41:37.390Z,4.60
2023-08-17T17:44:06.713Z,4.50
2023-08-17T17:46:35.236Z,4.55
2023-08-17T17:49:03.747Z,4.70
2023-08-17T17:51:32.218Z,4.45
2023-08-17T17:54:02.234Z,4.82
2023-08-17T17:56:40.647Z,4.72
2023-08-17T17:59:11.247Z,4.68
2023-08-17T18:01:40.299Z,4.80
2023-08-17T18:04:08.839Z,4.68
2023-08-17T18:06:37.292Z,5.13
2023-08-17T18:09:07.323Z,4.70
2023-08-17T18:11:36.127Z,5.00
2023-08-17T18:14:04.707Z,4.90
2023-08-17T18:16:33.267Z,5.20
2023-08-17T18:19:01.933Z,5.35
2023-08-17T18:21:32.122Z,5.35
2023-08-17T18:24:00.865Z,5.30
2023-08-17T18:26:30.721Z,5.40
2023-08-17T18:28:59.797Z,5.57
2023-08-17T18:31:29.205Z,5.60
2023-08-17T18:33:57.861Z,5.63
2023-08-17T18:36:26.630Z,5.88
2023-08-17T18:38:55.298Z,5.55
2023-08-17T18:41:23.911Z,5.95
2023-08-17T18:43:54.153Z,5.97
2023-08-17T18:46:22.986Z,5.97
2023-08-17T18:48:51.670Z,5.68
2023-08-17T18:51:20.185Z,5.80
2023-08-17T18:53:49.346Z,5.63
2023-08-17T18:56:17.798Z,5.68
2023-08-17T18:58:46.315Z,4.68
2023-08-17T19:01:18.814Z,5.35
2023-08-17T19:03:47.435Z,5.03
2023-08-17T19:06:15.985Z,5.15
2023-08-17T19:08:44.535Z,5.78
2023-08-17T19:11:12.967Z,5.25
2023-08-17T19:13:41.429Z,5.28
2023-08-17T19:16:10.377Z,5.35
2023-08-17T19:18:40.210Z,4.82
2023-08-17T19:21:09.180Z,4.93
2023-08-17T19:23:37.654Z,5.40
2023-08-17T19:26:06.851Z,8.73
2023-08-17T19:28:35.329Z,9.20
2023-08-17T19:31:03.764Z,7.65
2023-08-17T19:33:32.390Z,8.20
2023-08-17T19:36:02.281Z,7.32
2023-08-17T19:38:30.781Z,6.72
2023-08-17T19:40:59.273Z,6.78
2023-08-17T19:43:27.806Z,7.20
2023-08-17T19:45:56.368Z,7.00
2023-08-17T19:48:24.918Z,6.47
2023-08-17T19:50:54.759Z,5.88
2023-08-17T19:53:24.936Z,5.50
2023-08-17T19:55:54.257Z,5.82
2023-08-17T19:58:23.028Z,5.15
2023-08-17T20:00:51.821Z,5.55
2023-08-17T20:03:21.770Z,5.60
2023-08-17T20:05:50.964Z,5.43
2023-08-17T20:08:19.816Z,5.68
2023-08-17T20:10:49.988Z,5.88
2023-08-17T20:13:18.842Z,5.47
2023-08-17T20:15:47.639Z,5.20
2023-08-17T20:18:16.324Z,5.22
2023-08-17T20:20:52.034Z,5.38
2023-08-17T20:23:21.346Z,5.32
2023-08-17T20:25:53.805Z,5.30
2023-08-17T20:28:23.639Z,5.20
2023-08-17T20:30:57.469Z,4.90
2023-08-17T20:33:26.169Z,5.10
2023-08-17T20:35:55.422Z,5.05
2023-08-17T20:38:24.229Z,4.78
2023-08-17T20:40:54.607Z,4.97
2023-08-17T20:43:23.608Z,5.28
2023-08-17T20:45:52.271Z,4.68
2023-08-17T20:48:21.036Z,5.40
2023-08-17T20:50:49.888Z,4.93
2023-08-17T20:53:18.626Z,4.50
2023-08-17T20:55:47.921Z,4.88
2023-08-17T20:58:18.379Z,4.88
2023-08-17T21:00:47.163Z,4.60
2023-08-17T21:03:16.013Z,5.60
2023-08-17T21:05:44.822Z,4.80
2023-08-17T21:08:14.089Z,4.70
2023-08-17T21:10:43.563Z,4.53
2023-08-17T21:13:12.436Z,5.18
2023-08-17T21:15:42.849Z,5.25
2023-08-17T21:18:11.638Z,4.93
2023-08-17T21:20:42.778Z,4.97
2023-08-17T21:23:12.661Z,4.93
2023-08-17T21:25:41.476Z,4.82
2023-08-17T21:28:10.163Z,4.82
2023-08-17T21:30:38.890Z,4.93
2023-08-17T21:33:09.037Z,4.30
2023-08-17T21:35:38.131Z,4.72
2023-08-17T21:38:06.977Z,5.00
2023-08-17T21:40:35.946Z,4.40
2023-08-17T21:43:04.686Z,4.45
2023-08-17T21:45:33.477Z,4.20
2023-08-17T21:48:02.298Z,4.35
2023-08-17T21:50:32.585Z,4.20
2023-08-17T21:53:01.412Z,3.92
2023-08-17T21:55:30.369Z,4.72
2023-08-17T21:57:59.214Z,4.70
2023-08-17T22:00:28.111Z,4.57
2023-08-17T22:02:57.103Z,4.50
2023-08-17T22:05:25.830Z,3.78
2023-08-17T22:07:55.999Z,4.45
2023-08-17T22:10:24.737Z,4.82
2023-08-17T22:12:54.097Z,4.40
2023-08-17T22:15:22.892Z,4.28
2023-08-17T22:17:51.925Z,3.97
2023-08-17T22:20:20.692Z,4.30
2023-08-17T22:22:49.640Z,4.43
2023-08-17T22:25:19.850Z,4.20
2023-08-17T22:27:48.663Z,4.50
2023-08-17T22:30:17.480Z,4.30
2023-08-17T22:32:47.220Z,4.40
2023-08-17T22:35:15.920Z,4.20
2023-08-17T22:37:44.638Z,4.00
2023-08-17T22:40:13.598Z,4.22
2023-08-17T22:42:43.931Z,3.85
2023-08-17T22:45:13.284Z,4.57
2023-08-17T22:47:42.110Z,4.40
2023-08-17T22:50:11.711Z,4.25
2023-08-17T22:52:40.768Z,4.57
2023-08-17T22:55:09.948Z,4.30
2023-08-17T22:57:38.922Z,4.50
2023-08-17T23:00:10.683Z,3.90
2023-08-17T23:02:39.415Z,4.47
2023-08-17T23:05:09.132Z,4.53
2023-08-17T23:07:37.873Z,4.40
2023-08-17T23:10:07.602Z,4.45
2023-08-17T23:12:36.452Z,4.60
2023-08-17T23:15:05.584Z,3.97
2023-08-17T23:17:35.995Z,4.22
2023-08-17T23:20:05.043Z,4.40
2023-08-17T23:22:33.763Z,4.47
2023-08-17T23:25:02.554Z,4.40
2023-08-17T23:27:31.795Z,4.25
2023-08-17T23:30:01.065Z,4.70
2023-08-17T23:32:30.030Z,4.70
2023-08-17T23:35:00.290Z,4.47
2023-08-17T23:37:29.228Z,4.55
2023-08-17T23:39:58.390Z,4.28
2023-08-17T23:42:27.167Z,4.78
2023-08-17T23:44:55.928Z,4.50
2023-08-17T23:47:24.657Z,4.10
2023-08-17T23:49:53.595Z,4.75
2023-08-17T23:52:23.916Z,4.60
2023-08-17T23:54:52.845Z,4.30
2023-08-17T23:57:21.531Z,4.63
2023-08-17T23:59:50.823Z,4.47
